sensor_id;sensor_type;location;lat;lon;timestamp;P1;durP1;ratioP1;P2;durP2;ratioP2
23696;SDS011;48864;50.820;4.400;2022-07-04T00:01:26;4.50;;;1.50;;
23696;SDS011;48864;50.820;4.400;2022-07-04T00:03:51;4.45;;;1.77;;
23696;SDS011;48864;50.820;4.400;2022-07-04T00:06:17;3.95;;;1.52;;
23696;SDS011;48864;50.820;4.400;2022-07-04T00:08:43;5.85;;;2.03;;
23696;SDS011;48864;50.820;4.400;2022-07-04T00:11:08;4.25;;;2.13;;
23696;SDS011;48864;50.820;4.400;2022-07-04T00:13:34;3.38;;;1.73;;
23696;SDS011;48864;50.820;4.400;2022-07-04T00:15:59;3.15;;;1.55;;
23696;SDS011;48864;50.820;4.400;2022-07-04T00:18:25;3.55;;;1.63;;
23696;SDS011;48864;50.820;4.400;2022-07-04T00:20:51;7.05;;;2.38;;
23696;SDS011;48864;50.820;4.400;2022-07-04T00:23:18;3.10;;;1.95;;
23696;SDS011;48864;50.820;4.400;2022-07-04T00:25:44;4.43;;;2.15;;
23696;SDS011;48864;50.820;4.400;2022-07-04T00:28:10;6.75;;;2.30;;
23696;SDS011;48864;50.820;4.400;2022-07-04T00:30:36;4.70;;;1.75;;
23696;SDS011;48864;50.820;4.400;2022-07-04T00:33:02;4.45;;;1.60;;
23696;SDS011;48864;50.820;4.400;2022-07-04T00:35:28;4.13;;;2.08;;
23696;SDS011;48864;50.820;4.400;2022-07-04T00:37:53;5.15;;;1.70;;
23696;SDS011;48864;50.820;4.400;2022-07-04T00:40:19;6.63;;;2.45;;
23696;SDS011;48864;50.820;4.400;2022-07-04T00:42:45;5.68;;;1.77;;
23696;SDS011;48864;50.820;4.400;2022-07-04T00:45:10;3.45;;;1.65;;
23696;SDS011;48864;50.820;4.400;2022-07-04T00:47:36;3.47;;;1.60;;
23696;SDS011;48864;50.820;4.400;2022-07-04T00:50:01;6.95;;;2.00;;
23696;SDS011;48864;50.820;4.400;2022-07-04T00:52:27;3.58;;;1.77;;
23696;SDS011;48864;50.820;4.400;2022-07-04T00:54:53;4.95;;;1.88;;
23696;SDS011;48864;50.820;4.400;2022-07-04T00:57:19;8.07;;;2.00;;
23696;SDS011;48864;50.820;4.400;2022-07-04T00:59:45;3.08;;;1.60;;
23696;SDS011;48864;50.820;4.400;2022-07-04T01:02:10;5.90;;;2.10;;
23696;SDS011;48864;50.820;4.400;2022-07-04T01:04:36;5.55;;;1.83;;
23696;SDS011;48864;50.820;4.400;2022-07-04T01:07:02;3.97;;;1.80;;
23696;SDS011;48864;50.820;4.400;2022-07-04T01:09:29;3.92;;;1.75;;
23696;SDS011;48864;50.820;4.400;2022-07-04T01:14:55;6.30;;;2.00;;
23696;SDS011;48864;50.820;4.400;2022-07-04T01:17:21;8.02;;;1.70;;
23696;SDS011;48864;50.820;4.400;2022-07-04T01:19:47;6.60;;;1.85;;
23696;SDS011;48864;50.820;4.400;2022-07-04T01:22:12;5.63;;;2.08;;
23696;SDS011;48864;50.820;4.400;2022-07-04T01:24:38;5.15;;;1.85;;
23696;SDS011;48864;50.820;4.400;2022-07-04T01:27:04;6.03;;;2.00;;
23696;SDS011;48864;50.820;4.400;2022-07-04T01:29:31;4.53;;;1.90;;
23696;SDS011;48864;50.820;4.400;2022-07-04T01:31:57;3.65;;;1.92;;
23696;SDS011;48864;50.820;4.400;2022-07-04T01:34:31;3.95;;;1.73;;
23696;SDS011;48864;50.820;4.400;2022-07-04T01:36:58;3.17;;;1.67;;
23696;SDS011;48864;50.820;4.400;2022-07-04T01:39:25;5.25;;;2.00;;
23696;SDS011;48864;50.820;4.400;2022-07-04T01:41:51;3.05;;;1.70;;
23696;SDS011;48864;50.820;4.400;2022-07-04T01:44:17;6.75;;;2.00;;
23696;SDS011;48864;50.820;4.400;2022-07-04T01:46:42;3.60;;;1.70;;
23696;SDS011;48864;50.820;4.400;2022-07-04T01:49:08;5.32;;;1.90;;
23696;SDS011;48864;50.820;4.400;2022-07-04T01:51:33;6.07;;;1.80;;
23696;SDS011;48864;50.820;4.400;2022-07-04T01:53:59;4.07;;;1.95;;
23696;SDS011;48864;50.820;4.400;2022-07-04T01:56:25;2.35;;;1.80;;
23696;SDS011;48864;50.820;4.400;2022-07-04T01:58:51;5.63;;;1.90;;
23696;SDS011;48864;50.820;4.400;2022-07-04T02:01:16;3.65;;;1.98;;
23696;SDS011;48864;50.820;4.400;2022-07-04T02:03:54;4.07;;;1.60;;
23696;SDS011;48864;50.820;4.400;2022-07-04T02:06:20;2.53;;;1.58;;
23696;SDS011;48864;50.820;4.400;2022-07-04T02:08:46;3.78;;;1.90;;
23696;SDS011;48864;50.820;4.400;2022-07-04T02:11:30;4.25;;;1.85;;
23696;SDS011;48864;50.820;4.400;2022-07-04T02:14:15;5.15;;;1.80;;
23696;SDS011;48864;50.820;4.400;2022-07-04T02:16:41;2.92;;;1.80;;
23696;SDS011;48864;50.820;4.400;2022-07-04T02:19:07;5.15;;;1.80;;
23696;SDS011;48864;50.820;4.400;2022-07-04T02:21:33;2.72;;;1.58;;
23696;SDS011;48864;50.820;4.400;2022-07-04T02:23:58;3.95;;;1.85;;
23696;SDS011;48864;50.820;4.400;2022-07-04T02:26:24;6.25;;;1.95;;
23696;SDS011;48864;50.820;4.400;2022-07-04T02:28:50;3.58;;;1.80;;
23696;SDS011;48864;50.820;4.400;2022-07-04T02:31:17;4.43;;;1.70;;
23696;SDS011;48864;50.820;4.400;2022-07-04T02:33:43;4.07;;;1.77;;
23696;SDS011;48864;50.820;4.400;2022-07-04T02:36:08;3.33;;;1.67;;
23696;SDS011;48864;50.820;4.400;2022-07-04T02:38:34;4.85;;;1.80;;
23696;SDS011;48864;50.820;4.400;2022-07-04T02:40:59;3.35;;;1.77;;
23696;SDS011;48864;50.820;4.400;2022-07-04T02:43:25;4.03;;;2.17;;
23696;SDS011;48864;50.820;4.400;2022-07-04T02:45:51;6.20;;;2.10;;
23696;SDS011;48864;50.820;4.400;2022-07-04T02:48:16;3.25;;;1.88;;
23696;SDS011;48864;50.820;4.400;2022-07-04T02:50:42;4.40;;;1.70;;
23696;SDS011;48864;50.820;4.400;2022-07-04T02:53:08;5.90;;;1.90;;
23696;SDS011;48864;50.820;4.400;2022-07-04T02:55:34;4.78;;;2.70;;
23696;SDS011;48864;50.820;4.400;2022-07-04T02:57:59;7.43;;;1.80;;
23696;SDS011;48864;50.820;4.400;2022-07-04T03:00:25;5.22;;;1.85;;
23696;SDS011;48864;50.820;4.400;2022-07-04T03:02:51;4.60;;;1.65;;
23696;SDS011;48864;50.820;4.400;2022-07-04T03:05:18;7.10;;;2.13;;
23696;SDS011;48864;50.820;4.400;2022-07-04T03:07:43;4.50;;;1.60;;
23696;SDS011;48864;50.820;4.400;2022-07-04T03:10:09;2.65;;;1.73;;
23696;SDS011;48864;50.820;4.400;2022-07-04T03:12:35;5.22;;;1.75;;
23696;SDS011;48864;50.820;4.400;2022-07-04T03:15:00;2.38;;;1.67;;
23696;SDS011;48864;50.820;4.400;2022-07-04T03:17:26;3.33;;;1.42;;
23696;SDS011;48864;50.820;4.400;2022-07-04T03:19:53;3.10;;;1.80;;
23696;SDS011;48864;50.820;4.400;2022-07-04T03:22:18;5.18;;;1.60;;
23696;SDS011;48864;50.820;4.400;2022-07-04T03:24:44;2.70;;;1.23;;
23696;SDS011;48864;50.820;4.400;2022-07-04T03:27:10;7.10;;;2.50;;
23696;SDS011;48864;50.820;4.400;2022-07-04T03:29:35;4.10;;;1.60;;
23696;SDS011;48864;50.820;4.400;2022-07-04T03:32:01;6.80;;;2.03;;
23696;SDS011;48864;50.820;4.400;2022-07-04T03:34:26;4.75;;;1.70;;
23696;SDS011;48864;50.820;4.400;2022-07-04T03:36:56;3.33;;;1.80;;
23696;SDS011;48864;50.820;4.400;2022-07-04T03:39:22;3.92;;;1.63;;
23696;SDS011;48864;50.820;4.400;2022-07-04T03:41:47;4.32;;;1.60;;
23696;SDS011;48864;50.820;4.400;2022-07-04T03:44:13;6.53;;;1.73;;
23696;SDS011;48864;50.820;4.400;2022-07-04T03:46:39;3.63;;;1.50;;
23696;SDS011;48864;50.820;4.400;2022-07-04T03:49:04;6.05;;;2.60;;
23696;SDS011;48864;50.820;4.400;2022-07-04T03:51:30;5.78;;;2.13;;
23696;SDS011;48864;50.820;4.400;2022-07-04T03:53:56;2.00;;;1.35;;
23696;SDS011;48864;50.820;4.400;2022-07-04T03:56:22;4.00;;;1.60;;
23696;SDS011;48864;50.820;4.400;2022-07-04T03:58:47;3.97;;;1.40;;
23696;SDS011;48864;50.820;4.400;2022-07-04T04:01:14;2.65;;;1.38;;
23696;SDS011;48864;50.820;4.400;2022-07-04T04:03:43;3.28;;;1.48;;
23696;SDS011;48864;50.820;4.400;2022-07-04T04:06:28;5.97;;;1.60;;
23696;SDS011;48864;50.820;4.400;2022-07-04T04:08:54;5.30;;;1.75;;
23696;SDS011;48864;50.820;4.400;2022-07-04T04:11:19;5.38;;;1.65;;
23696;SDS011;48864;50.820;4.400;2022-07-04T04:13:45;4.13;;;1.73;;
23696;SDS011;48864;50.820;4.400;2022-07-04T04:16:11;2.20;;;1.40;;
23696;SDS011;48864;50.820;4.400;2022-07-04T04:18:36;5.35;;;1.60;;
23696;SDS011;48864;50.820;4.400;2022-07-04T04:21:02;2.88;;;1.45;;
23696;SDS011;48864;50.820;4.400;2022-07-04T04:23:28;2.95;;;1.40;;
23696;SDS011;48864;50.820;4.400;2022-07-04T04:25:54;3.60;;;1.50;;
23696;SDS011;48864;50.820;4.400;2022-07-04T04:28:19;2.88;;;1.42;;
23696;SDS011;48864;50.820;4.400;2022-07-04T04:30:45;3.25;;;1.63;;
23696;SDS011;48864;50.820;4.400;2022-07-04T04:33:11;3.00;;;1.40;;
23696;SDS011;48864;50.820;4.400;2022-07-04T04:35:37;5.55;;;1.70;;
23696;SDS011;48864;50.820;4.400;2022-07-04T04:38:02;2.92;;;1.35;;
23696;SDS011;48864;50.820;4.400;2022-07-04T04:40:28;2.22;;;1.30;;
23696;SDS011;48864;50.820;4.400;2022-07-04T04:42:55;2.88;;;1.40;;
23696;SDS011;48864;50.820;4.400;2022-07-04T04:45:20;5.22;;;1.50;;
23696;SDS011;48864;50.820;4.400;2022-07-04T04:47:46;5.15;;;1.73;;
23696;SDS011;48864;50.820;4.400;2022-07-04T04:50:11;3.97;;;1.58;;
23696;SDS011;48864;50.820;4.400;2022-07-04T04:52:39;3.40;;;1.60;;
23696;SDS011;48864;50.820;4.400;2022-07-04T04:55:08;6.20;;;1.73;;
23696;SDS011;48864;50.820;4.400;2022-07-04T04:57:49;4.75;;;1.90;;
23696;SDS011;48864;50.820;4.400;2022-07-04T05:00:15;4.78;;;1.50;;
23696;SDS011;48864;50.820;4.400;2022-07-04T05:02:41;4.00;;;1.65;;
23696;SDS011;48864;50.820;4.400;2022-07-04T05:05:06;5.53;;;1.60;;
23696;SDS011;48864;50.820;4.400;2022-07-04T05:07:32;6.07;;;1.60;;
23696;SDS011;48864;50.820;4.400;2022-07-04T05:09:59;4.25;;;1.88;;
23696;SDS011;48864;50.820;4.400;2022-07-04T05:12:26;4.43;;;1.83;;
23696;SDS011;48864;50.820;4.400;2022-07-04T05:14:52;8.48;;;1.70;;
23696;SDS011;48864;50.820;4.400;2022-07-04T05:17:18;5.20;;;1.80;;
23696;SDS011;48864;50.820;4.400;2022-07-04T05:19:44;3.45;;;1.55;;
23696;SDS011;48864;50.820;4.400;2022-07-04T05:22:09;3.20;;;1.50;;
23696;SDS011;48864;50.820;4.400;2022-07-04T05:24:35;3.33;;;1.70;;
23696;SDS011;48864;50.820;4.400;2022-07-04T05:27:04;3.97;;;1.80;;
23696;SDS011;48864;50.820;4.400;2022-07-04T05:29:31;6.68;;;1.88;;
23696;SDS011;48864;50.820;4.400;2022-07-04T05:31:57;3.83;;;1.92;;
23696;SDS011;48864;50.820;4.400;2022-07-04T05:34:22;5.72;;;1.60;;
23696;SDS011;48864;50.820;4.400;2022-07-04T05:36:48;2.70;;;1.55;;
23696;SDS011;48864;50.820;4.400;2022-07-04T05:39:14;7.07;;;1.50;;
23696;SDS011;48864;50.820;4.400;2022-07-04T05:41:39;4.28;;;1.65;;
23696;SDS011;48864;50.820;4.400;2022-07-04T05:44:05;7.10;;;1.90;;
23696;SDS011;48864;50.820;4.400;2022-07-04T05:46:31;7.25;;;1.88;;
23696;SDS011;48864;50.820;4.400;2022-07-04T05:48:56;4.97;;;1.70;;
23696;SDS011;48864;50.820;4.400;2022-07-04T05:51:22;6.22;;;1.85;;
23696;SDS011;48864;50.820;4.400;2022-07-04T05:53:48;5.05;;;1.60;;
23696;SDS011;48864;50.820;4.400;2022-07-04T05:56:14;2.30;;;1.45;;
23696;SDS011;48864;50.820;4.400;2022-07-04T05:58:39;5.30;;;1.77;;
23696;SDS011;48864;50.820;4.400;2022-07-04T06:01:05;5.00;;;1.55;;
23696;SDS011;48864;50.820;4.400;2022-07-04T06:03:32;6.05;;;1.58;;
23696;SDS011;48864;50.820;4.400;2022-07-04T06:06:01;8.25;;;1.50;;
23696;SDS011;48864;50.820;4.400;2022-07-04T06:08:27;4.90;;;1.40;;
23696;SDS011;48864;50.820;4.400;2022-07-04T06:10:53;4.65;;;1.60;;
23696;SDS011;48864;50.820;4.400;2022-07-04T06:13:19;2.08;;;1.20;;
23696;SDS011;48864;50.820;4.400;2022-07-04T06:15:44;4.45;;;1.40;;
23696;SDS011;48864;50.820;4.400;2022-07-04T06:18:10;4.45;;;1.50;;
23696;SDS011;48864;50.820;4.400;2022-07-04T06:20:37;2.47;;;1.20;;
23696;SDS011;48864;50.820;4.400;2022-07-04T06:23:05;5.40;;;1.25;;
23696;SDS011;48864;50.820;4.400;2022-07-04T06:25:31;5.05;;;1.38;;
23696;SDS011;48864;50.820;4.400;2022-07-04T06:27:56;2.45;;;1.05;;
23696;SDS011;48864;50.820;4.400;2022-07-04T06:30:22;2.75;;;1.15;;
23696;SDS011;48864;50.820;4.400;2022-07-04T06:32:49;3.97;;;1.20;;
23696;SDS011;48864;50.820;4.400;2022-07-04T06:35:23;3.33;;;1.10;;
23696;SDS011;48864;50.820;4.400;2022-07-04T06:38:08;3.53;;;1.27;;
23696;SDS011;48864;50.820;4.400;2022-07-04T06:40:35;2.22;;;1.25;;
23696;SDS011;48864;50.820;4.400;2022-07-04T06:43:01;4.18;;;1.65;;
23696;SDS011;48864;50.820;4.400;2022-07-04T06:45:27;3.70;;;1.30;;
23696;SDS011;48864;50.820;4.400;2022-07-04T06:47:53;4.95;;;1.10;;
23696;SDS011;48864;50.820;4.400;2022-07-04T06:50:19;5.47;;;1.30;;
23696;SDS011;48864;50.820;4.400;2022-07-04T06:52:44;5.97;;;1.60;;
23696;SDS011;48864;50.820;4.400;2022-07-04T06:55:10;2.92;;;0.90;;
23696;SDS011;48864;50.820;4.400;2022-07-04T06:57:36;3.08;;;1.20;;
23696;SDS011;48864;50.820;4.400;2022-07-04T07:00:02;4.00;;;1.30;;
23696;SDS011;48864;50.820;4.400;2022-07-04T07:02:33;2.63;;;1.10;;
23696;SDS011;48864;50.820;4.400;2022-07-04T07:05:00;2.97;;;1.10;;
23696;SDS011;48864;50.820;4.400;2022-07-04T07:07:26;3.72;;;1.00;;
23696;SDS011;48864;50.820;4.400;2022-07-04T07:09:53;3.50;;;1.30;;
23696;SDS011;48864;50.820;4.400;2022-07-04T07:12:19;4.53;;;1.10;;
23696;SDS011;48864;50.820;4.400;2022-07-04T07:14:45;3.88;;;1.10;;
23696;SDS011;48864;50.820;4.400;2022-07-04T07:17:11;6.45;;;1.20;;
23696;SDS011;48864;50.820;4.400;2022-07-04T07:19:37;5.35;;;1.40;;
23696;SDS011;48864;50.820;4.400;2022-07-04T07:22:02;4.55;;;1.20;;
23696;SDS011;48864;50.820;4.400;2022-07-04T07:24:28;3.00;;;1.00;;
23696;SDS011;48864;50.820;4.400;2022-07-04T07:26:55;1.38;;;0.88;;
23696;SDS011;48864;50.820;4.400;2022-07-04T07:29:22;1.60;;;0.88;;
23696;SDS011;48864;50.820;4.400;2022-07-04T07:31:48;3.65;;;1.13;;
23696;SDS011;48864;50.820;4.400;2022-07-04T07:34:14;2.30;;;1.10;;
23696;SDS011;48864;50.820;4.400;2022-07-04T07:36:39;2.65;;;1.10;;
23696;SDS011;48864;50.820;4.400;2022-07-04T07:39:05;2.50;;;1.00;;
23696;SDS011;48864;50.820;4.400;2022-07-04T07:41:31;4.35;;;1.10;;
23696;SDS011;48864;50.820;4.400;2022-07-04T07:43:56;2.67;;;1.17;;
23696;SDS011;48864;50.820;4.400;2022-07-04T07:46:22;3.50;;;1.10;;
23696;SDS011;48864;50.820;4.400;2022-07-04T07:48:47;5.30;;;0.90;;
23696;SDS011;48864;50.820;4.400;2022-07-04T07:51:13;5.03;;;1.48;;
23696;SDS011;48864;50.820;4.400;2022-07-04T07:53:40;3.55;;;1.23;;
23696;SDS011;48864;50.820;4.400;2022-07-04T07:56:06;3.55;;;1.17;;
23696;SDS011;48864;50.820;4.400;2022-07-04T07:58:32;1.83;;;0.70;;
23696;SDS011;48864;50.820;4.400;2022-07-04T08:00:58;5.85;;;0.90;;
23696;SDS011;48864;50.820;4.400;2022-07-04T08:03:23;4.35;;;0.70;;
23696;SDS011;48864;50.820;4.400;2022-07-04T08:06:08;2.88;;;1.00;;
23696;SDS011;48864;50.820;4.400;2022-07-04T08:08:34;1.75;;;0.70;;
23696;SDS011;48864;50.820;4.400;2022-07-04T08:10:59;3.30;;;0.80;;
23696;SDS011;48864;50.820;4.400;2022-07-04T08:13:25;2.35;;;0.70;;
23696;SDS011;48864;50.820;4.400;2022-07-04T08:15:51;3.78;;;0.90;;
23696;SDS011;48864;50.820;4.400;2022-07-04T08:18:16;3.00;;;1.23;;
23696;SDS011;48864;50.820;4.400;2022-07-04T08:20:43;1.02;;;0.60;;
23696;SDS011;48864;50.820;4.400;2022-07-04T08:23:08;2.03;;;0.88;;
23696;SDS011;48864;50.820;4.400;2022-07-04T08:25:34;2.42;;;0.68;;
23696;SDS011;48864;50.820;4.400;2022-07-04T08:28:00;1.67;;;0.70;;
23696;SDS011;48864;50.820;4.400;2022-07-04T08:30:25;2.90;;;0.70;;
23696;SDS011;48864;50.820;4.400;2022-07-04T08:32:51;2.08;;;0.70;;
23696;SDS011;48864;50.820;4.400;2022-07-04T08:35:16;1.42;;;0.80;;
23696;SDS011;48864;50.820;4.400;2022-07-04T08:37:42;2.08;;;1.10;;
23696;SDS011;48864;50.820;4.400;2022-07-04T08:40:08;6.30;;;1.08;;
23696;SDS011;48864;50.820;4.400;2022-07-04T08:42:37;2.60;;;0.80;;
23696;SDS011;48864;50.820;4.400;2022-07-04T08:45:04;2.28;;;0.70;;
23696;SDS011;48864;50.820;4.400;2022-07-04T08:47:34;3.58;;;1.05;;
23696;SDS011;48864;50.820;4.400;2022-07-04T08:50:08;2.50;;;0.82;;
23696;SDS011;48864;50.820;4.400;2022-07-04T08:52:41;1.92;;;0.82;;
23696;SDS011;48864;50.820;4.400;2022-07-04T08:55:09;3.38;;;1.10;;
23696;SDS011;48864;50.820;4.400;2022-07-04T08:57:55;4.32;;;0.93;;
23696;SDS011;48864;50.820;4.400;2022-07-04T09:00:40;4.22;;;0.90;;
23696;SDS011;48864;50.820;4.400;2022-07-04T09:03:07;4.75;;;1.10;;
23696;SDS011;48864;50.820;4.400;2022-07-04T09:05:33;3.60;;;1.10;;
23696;SDS011;48864;50.820;4.400;2022-07-04T09:08:00;2.55;;;0.85;;
23696;SDS011;48864;50.820;4.400;2022-07-04T09:10:27;3.20;;;1.00;;
23696;SDS011;48864;50.820;4.400;2022-07-04T09:12:53;4.45;;;1.00;;
23696;SDS011;48864;50.820;4.400;2022-07-04T09:15:19;2.83;;;1.00;;
23696;SDS011;48864;50.820;4.400;2022-07-04T09:17:47;4.70;;;1.20;;
23696;SDS011;48864;50.820;4.400;2022-07-04T09:20:14;3.15;;;1.20;;
23696;SDS011;48864;50.820;4.400;2022-07-04T09:22:40;3.83;;;1.58;;
23696;SDS011;48864;50.820;4.400;2022-07-04T09:25:05;7.35;;;2.30;;
23696;SDS011;48864;50.820;4.400;2022-07-04T09:27:38;6.32;;;2.65;;
23696;SDS011;48864;50.820;4.400;2022-07-04T09:30:09;8.75;;;4.00;;
23696;SDS011;48864;50.820;4.400;2022-07-04T09:32:41;11.73;;;5.30;;
23696;SDS011;48864;50.820;4.400;2022-07-04T09:35:09;9.50;;;4.18;;
23696;SDS011;48864;50.820;4.400;2022-07-04T09:37:40;11.75;;;5.35;;
23696;SDS011;48864;50.820;4.400;2022-07-04T09:40:10;14.88;;;6.18;;
23696;SDS011;48864;50.820;4.400;2022-07-04T09:42:45;22.33;;;7.25;;
23696;SDS011;48864;50.820;4.400;2022-07-04T09:45:11;12.82;;;6.60;;
23696;SDS011;48864;50.820;4.400;2022-07-04T09:47:38;14.48;;;6.88;;
23696;SDS011;48864;50.820;4.400;2022-07-04T09:55:27;17.52;;;7.97;;
23696;SDS011;48864;50.820;4.400;2022-07-04T09:57:54;18.75;;;8.23;;
23696;SDS011;48864;50.820;4.400;2022-07-04T10:02:57;15.93;;;7.78;;
23696;SDS011;48864;50.820;4.400;2022-07-04T10:08:30;14.60;;;5.22;;
23696;SDS011;48864;50.820;4.400;2022-07-04T10:11:02;15.85;;;5.50;;
23696;SDS011;48864;50.820;4.400;2022-07-04T10:13:29;12.68;;;5.35;;
23696;SDS011;48864;50.820;4.400;2022-07-04T10:15:55;12.65;;;5.05;;
23696;SDS011;48864;50.820;4.400;2022-07-04T10:18:21;15.43;;;6.45;;
23696;SDS011;48864;50.820;4.400;2022-07-04T10:20:48;15.43;;;6.50;;
23696;SDS011;48864;50.820;4.400;2022-07-04T10:23:15;5.25;;;2.53;;
23696;SDS011;48864;50.820;4.400;2022-07-04T10:25:41;8.35;;;3.08;;
23696;SDS011;48864;50.820;4.400;2022-07-04T10:28:08;6.60;;;2.70;;
23696;SDS011;48864;50.820;4.400;2022-07-04T10:30:35;3.95;;;2.13;;
23696;SDS011;48864;50.820;4.400;2022-07-04T10:33:03;3.03;;;1.65;;
23696;SDS011;48864;50.820;4.400;2022-07-04T10:38:11;13.13;;;4.20;;
23696;SDS011;48864;50.820;4.400;2022-07-04T10:49:00;2.60;;;1.48;;
23696;SDS011;48864;50.820;4.400;2022-07-04T10:51:34;1.75;;;1.00;;
23696;SDS011;48864;50.820;4.400;2022-07-04T10:57:06;2.47;;;0.98;;
23696;SDS011;48864;50.820;4.400;2022-07-04T10:59:36;3.35;;;1.40;;
23696;SDS011;48864;50.820;4.400;2022-07-04T11:18:11;2.90;;;1.60;;
23696;SDS011;48864;50.820;4.400;2022-07-04T11:20:41;3.75;;;1.60;;
23696;SDS011;48864;50.820;4.400;2022-07-04T11:23:12;4.32;;;1.55;;
23696;SDS011;48864;50.820;4.400;2022-07-04T11:25:44;2.08;;;1.13;;
23696;SDS011;48864;50.820;4.400;2022-07-04T11:28:21;5.35;;;1.67;;
23696;SDS011;48864;50.820;4.400;2022-07-04T11:30:51;3.38;;;1.50;;
23696;SDS011;48864;50.820;4.400;2022-07-04T11:33:23;2.50;;;1.20;;
23696;SDS011;48864;50.820;4.400;2022-07-04T11:36:06;3.20;;;1.10;;
23696;SDS011;48864;50.820;4.400;2022-07-04T11:38:52;3.00;;;1.15;;
23696;SDS011;48864;50.820;4.400;2022-07-04T11:41:26;2.40;;;1.50;;
23696;SDS011;48864;50.820;4.400;2022-07-04T11:44:13;2.20;;;1.13;;
23696;SDS011;48864;50.820;4.400;2022-07-04T11:47:19;5.43;;;1.20;;
23696;SDS011;48864;50.820;4.400;2022-07-04T11:49:47;2.08;;;1.38;;
23696;SDS011;48864;50.820;4.400;2022-07-04T11:52:13;4.78;;;1.10;;
23696;SDS011;48864;50.820;4.400;2022-07-04T11:54:41;3.65;;;1.10;;
23696;SDS011;48864;50.820;4.400;2022-07-04T11:57:11;1.95;;;0.93;;
23696;SDS011;48864;50.820;4.400;2022-07-04T11:59:39;3.10;;;1.20;;
23696;SDS011;48864;50.820;4.400;2022-07-04T12:02:15;1.48;;;0.95;;
23696;SDS011;48864;50.820;4.400;2022-07-04T12:04:41;2.55;;;1.45;;
23696;SDS011;48864;50.820;4.400;2022-07-04T12:07:08;4.65;;;1.05;;
23696;SDS011;48864;50.820;4.400;2022-07-04T12:09:35;5.20;;;1.40;;
23696;SDS011;48864;50.820;4.400;2022-07-04T12:12:02;2.45;;;1.30;;
23696;SDS011;48864;50.820;4.400;2022-07-04T12:14:27;4.68;;;1.30;;
23696;SDS011;48864;50.820;4.400;2022-07-04T12:17:09;4.03;;;1.30;;
23696;SDS011;48864;50.820;4.400;2022-07-04T12:19:56;4.20;;;1.35;;
23696;SDS011;48864;50.820;4.400;2022-07-04T12:22:36;2.80;;;1.05;;
23696;SDS011;48864;50.820;4.400;2022-07-04T12:25:04;3.17;;;1.05;;
23696;SDS011;48864;50.820;4.400;2022-07-04T12:27:32;3.83;;;1.08;;
23696;SDS011;48864;50.820;4.400;2022-07-04T12:30:02;3.08;;;1.10;;
23696;SDS011;48864;50.820;4.400;2022-07-04T12:32:44;3.20;;;1.20;;
23696;SDS011;48864;50.820;4.400;2022-07-04T12:40:56;3.88;;;1.30;;
23696;SDS011;48864;50.820;4.400;2022-07-04T12:48:50;2.47;;;1.13;;
23696;SDS011;48864;50.820;4.400;2022-07-04T12:51:18;2.55;;;1.20;;
23696;SDS011;48864;50.820;4.400;2022-07-04T12:53:49;2.00;;;1.10;;
23696;SDS011;48864;50.820;4.400;2022-07-04T12:58:59;0.95;;;0.90;;
23696;SDS011;48864;50.820;4.400;2022-07-04T13:01:26;1.67;;;1.00;;
23696;SDS011;48864;50.820;4.400;2022-07-04T13:03:52;5.72;;;1.10;;
23696;SDS011;48864;50.820;4.400;2022-07-04T13:06:17;3.67;;;1.10;;
23696;SDS011;48864;50.820;4.400;2022-07-04T13:08:44;1.33;;;0.90;;
23696;SDS011;48864;50.820;4.400;2022-07-04T13:11:10;1.95;;;0.80;;
23696;SDS011;48864;50.820;4.400;2022-07-04T13:13:54;1.85;;;0.95;;
23696;SDS011;48864;50.820;4.400;2022-07-04T13:16:19;1.85;;;1.05;;
23696;SDS011;48864;50.820;4.400;2022-07-04T13:18:45;1.52;;;0.90;;
23696;SDS011;48864;50.820;4.400;2022-07-04T13:21:10;2.55;;;1.00;;
23696;SDS011;48864;50.820;4.400;2022-07-04T13:23:36;4.53;;;2.70;;
23696;SDS011;48864;50.820;4.400;2022-07-04T13:26:02;1.42;;;1.25;;
23696;SDS011;48864;50.820;4.400;2022-07-04T13:28:28;1.30;;;0.90;;
23696;SDS011;48864;50.820;4.400;2022-07-04T13:30:53;1.58;;;0.98;;
23696;SDS011;48864;50.820;4.400;2022-07-04T13:33:19;3.20;;;0.80;;
23696;SDS011;48864;50.820;4.400;2022-07-04T13:35:45;1.85;;;1.00;;
23696;SDS011;48864;50.820;4.400;2022-07-04T13:38:10;1.05;;;0.80;;
23696;SDS011;48864;50.820;4.400;2022-07-04T13:40:36;2.67;;;1.13;;
23696;SDS011;48864;50.820;4.400;2022-07-04T13:43:02;4.97;;;1.10;;
23696;SDS011;48864;50.820;4.400;2022-07-04T13:45:34;3.08;;;1.02;;
23696;SDS011;48864;50.820;4.400;2022-07-04T13:48:00;1.15;;;0.82;;
23696;SDS011;48864;50.820;4.400;2022-07-04T13:50:26;2.67;;;0.95;;
23696;SDS011;48864;50.820;4.400;2022-07-04T13:52:51;2.85;;;1.08;;
23696;SDS011;48864;50.820;4.400;2022-07-04T13:55:19;4.55;;;1.05;;
23696;SDS011;48864;50.820;4.400;2022-07-04T13:57:45;1.75;;;0.70;;
23696;SDS011;48864;50.820;4.400;2022-07-04T14:00:11;3.78;;;1.00;;
23696;SDS011;48864;50.820;4.400;2022-07-04T14:02:37;3.83;;;1.00;;
23696;SDS011;48864;50.820;4.400;2022-07-04T14:05:02;4.82;;;1.20;;
23696;SDS011;48864;50.820;4.400;2022-07-04T14:07:28;2.83;;;0.80;;
23696;SDS011;48864;50.820;4.400;2022-07-04T14:09:54;4.10;;;1.10;;
23696;SDS011;48864;50.820;4.400;2022-07-04T14:12:19;1.30;;;0.90;;
23696;SDS011;48864;50.820;4.400;2022-07-04T14:14:45;1.55;;;1.08;;
23696;SDS011;48864;50.820;4.400;2022-07-04T14:17:11;3.47;;;1.20;;
23696;SDS011;48864;50.820;4.400;2022-07-04T14:19:36;1.75;;;0.90;;
23696;SDS011;48864;50.820;4.400;2022-07-04T14:22:02;3.05;;;1.15;;
23696;SDS011;48864;50.820;4.400;2022-07-04T14:24:28;3.63;;;1.00;;
23696;SDS011;48864;50.820;4.400;2022-07-04T14:26:53;1.58;;;1.00;;
23696;SDS011;48864;50.820;4.400;2022-07-04T14:29:19;2.30;;;0.98;;
23696;SDS011;48864;50.820;4.400;2022-07-04T14:31:45;2.03;;;1.10;;
23696;SDS011;48864;50.820;4.400;2022-07-04T14:34:11;2.63;;;1.20;;
23696;SDS011;48864;50.820;4.400;2022-07-04T14:36:38;1.55;;;0.82;;
23696;SDS011;48864;50.820;4.400;2022-07-04T14:39:05;3.00;;;1.35;;
23696;SDS011;48864;50.820;4.400;2022-07-04T14:41:31;3.55;;;1.33;;
23696;SDS011;48864;50.820;4.400;2022-07-04T14:43:57;3.63;;;1.13;;
23696;SDS011;48864;50.820;4.400;2022-07-04T14:46:22;1.35;;;0.90;;
23696;SDS011;48864;50.820;4.400;2022-07-04T14:48:48;3.20;;;0.95;;
23696;SDS011;48864;50.820;4.400;2022-07-04T14:51:14;2.97;;;1.15;;
23696;SDS011;48864;50.820;4.400;2022-07-04T14:53:41;4.88;;;1.00;;
23696;SDS011;48864;50.820;4.400;2022-07-04T14:56:07;2.10;;;1.20;;
23696;SDS011;48864;50.820;4.400;2022-07-04T14:58:32;2.50;;;1.10;;
23696;SDS011;48864;50.820;4.400;2022-07-04T15:00:58;1.92;;;1.10;;
23696;SDS011;48864;50.820;4.400;2022-07-04T15:03:24;2.08;;;1.00;;
23696;SDS011;48864;50.820;4.400;2022-07-04T15:05:49;3.85;;;1.17;;
23696;SDS011;48864;50.820;4.400;2022-07-04T15:08:15;5.30;;;1.10;;
23696;SDS011;48864;50.820;4.400;2022-07-04T15:10:40;2.53;;;1.10;;
23696;SDS011;48864;50.820;4.400;2022-07-04T15:13:06;2.42;;;0.90;;
23696;SDS011;48864;50.820;4.400;2022-07-04T15:15:32;2.95;;;1.08;;
23696;SDS011;48864;50.820;4.400;2022-07-04T15:17:58;3.45;;;1.20;;
23696;SDS011;48864;50.820;4.400;2022-07-04T15:20:24;3.38;;;1.35;;
23696;SDS011;48864;50.820;4.400;2022-07-04T15:23:08;2.55;;;1.08;;
23696;SDS011;48864;50.820;4.400;2022-07-04T15:25:52;3.53;;;1.27;;
23696;SDS011;48864;50.820;4.400;2022-07-04T15:28:17;2.35;;;0.90;;
23696;SDS011;48864;50.820;4.400;2022-07-04T15:30:43;2.65;;;1.10;;
23696;SDS011;48864;50.820;4.400;2022-07-04T15:33:08;1.25;;;1.00;;
23696;SDS011;48864;50.820;4.400;2022-07-04T15:35:39;2.25;;;1.15;;
23696;SDS011;48864;50.820;4.400;2022-07-04T15:38:09;2.88;;;1.20;;
23696;SDS011;48864;50.820;4.400;2022-07-04T15:40:34;1.85;;;1.00;;
23696;SDS011;48864;50.820;4.400;2022-07-04T15:43:00;1.98;;;0.93;;
23696;SDS011;48864;50.820;4.400;2022-07-04T15:45:26;2.47;;;1.42;;
23696;SDS011;48864;50.820;4.400;2022-07-04T15:47:52;1.95;;;1.08;;